Time;durP1;ratioP1;P1;durP2;ratioP2;P2;SDS_P1;SDS_P2;PMS_P1;PMS_P2;Temp;Humidity;BMP_temperature;BMP_pressure;BME280_temperature;BME280_humidity;BME280_pressure;Samples;Min_cycle;Max_cycle;Signal;HPM_P1;HPM_P2
2023/02/27 00:02:15;;;;;;;3.50;1.50;;;11.10;87.40;;;;;;6306473;22;20011;-72
2023/02/27 00:04:41;;;;;;;3.42;1.73;;;11.00;88.00;;;;;;6308152;22;20073;-72
2023/02/27 00:07:07;;;;;;;3.50;1.42;;;11.00;88.30;;;;;;6308298;22;20108;-72
2023/02/27 00:09:33;;;;;;;4.72;2.00;;;11.00;88.30;;;;;;6306854;22;20066;-72
2023/02/27 00:11:59;;;;;;;2.88;1.33;;;11.00;88.40;;;;;;6307761;22;20080;-72
2023/02/27 00:14:25;;;;;;;3.17;1.65;;;11.00;88.70;;;;;;6308449;22;20003;-72
2023/02/27 00:16:51;;;;;;;4.43;1.90;;;10.90;88.40;;;;;;6280905;22;20080;-71
2023/02/27 00:19:16;;;;;;;5.00;2.13;;;11.00;88.50;;;;;;6307733;22;19995;-72
2023/02/27 00:21:43;;;;;;;3.58;1.90;;;11.00;88.90;;;;;;6308204;22;19999;-71
2023/02/27 00:24:10;;;;;;;8.48;1.85;;;11.00;88.90;;;;;;6308039;22;20022;-72
2023/02/27 00:26:36;;;;;;;5.78;1.88;;;11.00;88.80;;;;;;6308356;22;20058;-72
2023/02/27 00:29:03;;;;;;;4.28;1.98;;;11.10;89.00;;;;;;6308180;22;20033;-73
2023/02/27 00:31:29;;;;;;;6.47;2.03;;;11.10;89.00;;;;;;6308075;22;20034;-72
2023/02/27 00:33:55;;;;;;;3.97;1.90;;;11.10;89.00;;;;;;6308304;22;20006;-73
2023/02/27 00:36:21;;;;;;;6.07;2.50;;;11.10;89.10;;;;;;6308172;22;20011;-71
2023/02/27 00:38:46;;;;;;;4.18;1.60;;;11.20;89.00;;;;;;6307907;22;20325;-71
2023/02/27 00:41:12;;;;;;;3.53;1.55;;;11.20;88.70;;;;;;6307913;22;19999;-71
2023/02/27 00:43:38;;;;;;;4.57;1.90;;;11.20;88.70;;;;;;6308217;22;20023;-72
2023/02/27 00:46:04;;;;;;;5.40;1.63;;;11.20;88.70;;;;;;6305087;22;20003;-72
2023/02/27 00:48:30;;;;;;;4.32;1.45;;;11.20;88.70;;;;;;6307803;22;20074;-73
2023/02/27 00:50:55;;;;;;;4.68;1.40;;;11.10;88.40;;;;;;6307926;22;20049;-72
2023/02/27 00:53:21;;;;;;;2.97;1.30;;;11.00;88.00;;;;;;6280293;22;20034;-71
2023/02/27 00:55:47;;;;;;;2.53;1.13;;;11.00;88.40;;;;;;6307483;22;20085;-71
2023/02/27 00:58:13;;;;;;;2.65;1.17;;;11.00;88.40;;;;;;6308160;22;20421;-73
2023/02/27 01:00:38;;;;;;;3.17;1.10;;;11.00;88.30;;;;;;6280652;22;20341;-72
2023/02/27 01:03:04;;;;;;;2.92;1.10;;;11.00;88.20;;;;;;6280180;22;20091;-71
2023/02/27 01:05:30;;;;;;;2.58;1.02;;;10.90;88.10;;;;;;6307441;22;20433;-71
2023/02/27 01:07:55;;;;;;;1.88;1.05;;;11.00;87.90;;;;;;6307955;22;20336;-71
2023/02/27 01:10:21;;;;;;;2.28;0.90;;;11.10;88.00;;;;;;6307731;22;20114;-71
2023/02/27 01:12:47;;;;;;;3.22;1.10;;;11.20;87.90;;;;;;6307529;22;19995;-73
2023/02/27 01:15:12;;;;;;;1.88;0.93;;;11.20;87.60;;;;;;6307975;22;20011;-71
2023/02/27 01:17:38;;;;;;;2.10;0.95;;;11.30;87.90;;;;;;6308973;22;20006;-71
2023/02/27 01:20:05;;;;;;;2.50;1.13;;;11.30;87.50;;;;;;6308967;22;19999;-72
2023/02/27 01:22:32;;;;;;;2.45;1.00;;;11.30;87.60;;;;;;6307001;22;20373;-72
2023/02/27 01:24:58;;;;;;;3.00;1.25;;;11.20;88.00;;;;;;6307493;22;20408;-73
2023/02/27 01:27:24;;;;;;;3.50;1.60;;;11.10;87.90;;;;;;6307144;22;20000;-69
2023/02/27 01:29:49;;;;;;;2.63;1.60;;;11.10;88.60;;;;;;6307456;22;20137;-71
2023/02/27 01:32:15;;;;;;;2.80;1.30;;;11.10;88.30;;;;;;6307380;22;19995;-71
2023/02/27 01:34:41;;;;;;;4.32;1.52;;;11.10;88.80;;;;;;6307621;22;20003;-71
2023/02/27 01:37:07;;;;;;;2.25;1.20;;;11.00;88.80;;;;;;6307502;22;20345;-71
2023/02/27 01:39:32;;;;;;;2.83;1.10;;;11.00;88.40;;;;;;6307124;22;20393;-72
2023/02/27 01:41:59;;;;;;;2.08;1.10;;;10.90;88.50;;;;;;6279713;22;20061;-71
2023/02/27 01:44:27;;;;;;;3.13;0.90;;;10.80;88.90;;;;;;6307085;22;19995;-71
2023/02/27 01:46:54;;;;;;;2.78;0.90;;;10.70;88.70;;;;;;6279648;22;20003;-71
2023/02/27 01:49:33;;;;;;;1.80;1.20;;;10.70;88.70;;;;;;6307216;22;20038;-71
2023/02/27 01:52:04;;;;;;;2.70;1.00;;;10.60;88.80;;;;;;6307023;22;20006;-71
2023/02/27 01:54:35;;;;;;;2.03;0.98;;;10.50;89.00;;;;;;6307000;22;19999;-71
2023/02/27 01:57:05;;;;;;;2.17;1.10;;;10.40;89.20;;;;;;6306984;22;20042;-71
2023/02/27 01:59:35;;;;;;;2.60;1.02;;;10.30;89.20;;;;;;6307095;22;20023;-72
2023/02/27 02:02:04;;;;;;;2.40;0.93;;;10.30;88.80;;;;;;6306604;22;20069;-72
2023/02/27 02:04:34;;;;;;;2.33;1.15;;;10.30;89.60;;;;;;6306740;22;20022;-72
2023/02/27 02:07:03;;;;;;;1.05;0.95;;;10.30;89.30;;;;;;6306892;22;19995;-72
2023/02/27 02:09:31;;;;;;;2.17;1.00;;;10.30;89.70;;;;;;6307112;22;20003;-70
2023/02/27 02:11:58;;;;;;;2.50;1.10;;;10.20;89.90;;;;;;6307133;22;20082;-72
2023/02/27 02:14:24;;;;;;;2.08;1.00;;;10.20;90.10;;;;;;6279741;22;20015;-71
2023/02/27 02:17:08;;;;;;;2.25;0.95;;;10.20;90.10;;;;;;6306792;22;20373;-71
2023/02/27 02:20:07;;;;;;;1.80;0.90;;;10.20;90.00;;;;;;6307285;22;19999;-72
2023/02/27 02:23:10;;;;;;;2.42;1.10;;;10.30;90.00;;;;;;6279994;22;20309;-71
2023/02/27 02:26:06;;;;;;;1.48;0.90;;;10.20;90.10;;;;;;6280021;22;20007;-71
2023/02/27 02:28:59;;;;;;;2.50;1.25;;;10.30;90.00;;;;;;6306832;22;20011;-71
2023/02/27 02:32:02;;;;;;;2.08;0.90;;;10.30;90.00;;;;;;6307424;22;20079;-71
2023/02/27 02:34:31;;;;;;;2.47;0.93;;;10.20;89.50;;;;;;6306945;22;20027;-72
2023/02/27 02:37:18;;;;;;;1.48;0.82;;;10.20;89.90;;;;;;6279817;22;20400;-71
2023/02/27 02:40:09;;;;;;;0.95;0.60;;;10.10;89.90;;;;;;6279573;22;20003;-74
2023/02/27 02:42:48;;;;;;;0.82;0.75;;;10.00;90.00;;;;;;6279764;22;20000;-72
2023/02/27 02:45:39;;;;;;;3.55;0.73;;;10.00;89.90;;;;;;6307669;22;20027;-72
2023/02/27 02:48:29;;;;;;;1.05;0.80;;;10.00;89.60;;;;;;6307017;22;20002;-71
2023/02/27 02:51:49;;;;;;;0.95;0.65;;;10.00;90.00;;;;;;6279890;22;20446;-70
2023/02/27 02:54:29;;;;;;;1.00;0.70;;;10.10;89.70;;;;;;6206935;23;20454;-73
2023/02/27 02:57:22;;;;;;;1.45;0.73;;;10.10;89.20;;;;;;6208916;23;20013;-70
2023/02/27 03:00:05;;;;;;;1.33;0.70;;;10.20;89.60;;;;;;6300258;22;20007;-73
2023/02/27 03:02:36;;;;;;;3.80;0.80;;;10.30;89.60;;;;;;6307604;22;20000;-71
2023/02/27 03:05:08;;;;;;;3.17;0.80;;;10.30;89.70;;;;;;6280505;22;20409;-73
2023/02/27 03:08:03;;;;;;;1.02;0.70;;;10.30;89.40;;;;;;6306891;22;20078;-71
2023/02/27 03:10:56;;;;;;;2.05;0.73;;;10.30;89.40;;;;;;6279437;22;20015;-71
2023/02/27 03:13:39;;;;;;;1.05;0.70;;;10.40;89.70;;;;;;6294138;22;20039;-70
2023/02/27 03:16:20;;;;;;;0.68;0.60;;;10.50;89.20;;;;;;6306579;22;20011;-71
2023/02/27 03:18:54;;;;;;;2.65;0.90;;;10.60;88.80;;;;;;6306776;22;20002;-71
2023/02/27 03:21:49;;;;;;;1.58;0.68;;;10.60;89.00;;;;;;6280169;22;20381;-72
2023/02/27 03:24:40;;;;;;;2.40;0.75;;;10.60;88.40;;;;;;6307030;22;20472;-71
2023/02/27 03:27:08;;;;;;;1.00;0.70;;;10.70;88.40;;;;;;6307251;22;20384;-70
2023/02/27 03:30:01;;;;;;;2.25;0.60;;;10.70;88.70;;;;;;6306480;22;20434;-72
2023/02/27 03:32:37;;;;;;;1.40;0.80;;;10.70;88.10;;;;;;6306619;22;20326;-72
2023/02/27 03:35:06;;;;;;;1.63;0.68;;;10.70;88.70;;;;;;6306454;22;20027;-70
2023/02/27 03:38:07;;;;;;;3.58;0.80;;;10.70;88.50;;;;;;6306648;22;20007;-71
2023/02/27 03:40:46;;;;;;;1.58;0.80;;;10.70;88.30;;;;;;6306353;22;20006;-71
2023/02/27 03:43:31;;;;;;;1.55;0.70;;;10.70;88.70;;;;;;6306620;22;19995;-70
2023/02/27 03:46:05;;;;;;;1.15;0.80;;;10.60;88.10;;;;;;6307185;22;20007;-71
2023/02/27 03:48:31;;;;;;;1.98;0.93;;;10.50;88.40;;;;;;6308715;22;20026;-70
2023/02/27 03:50:57;;;;;;;1.80;0.90;;;10.50;89.00;;;;;;6308716;22;20004;-71
2023/02/27 03:53:51;;;;;;;1.95;0.98;;;10.40;89.00;;;;;;6308792;22;19995;-70
2023/02/27 03:56:23;;;;;;;2.47;1.00;;;10.30;89.10;;;;;;6308720;22;20322;-70
2023/02/27 03:58:49;;;;;;;2.17;1.10;;;10.30;89.40;;;;;;6281053;22;20003;-71
2023/02/27 04:01:16;;;;;;;3.20;1.10;;;10.30;89.40;;;;;;6308645;22;20012;-71
2023/02/27 04:04:00;;;;;;;2.20;1.08;;;10.30;89.40;;;;;;6281183;22;20068;-71
2023/02/27 04:09:15;;;;;;;4.20;1.52;;;10.40;89.50;;;;;;6308447;22;20014;-71
2023/02/27 04:11:53;;;;;;;2.72;1.20;;;10.40;89.60;;;;;;6281141;22;20007;-72
2023/02/27 04:14:30;;;;;;;2.75;1.30;;;10.40;89.50;;;;;;6308574;22;19999;-72
2023/02/27 04:17:26;;;;;;;3.58;1.45;;;10.50;89.10;;;;;;6308063;22;20038;-72
2023/02/27 04:20:14;;;;;;;3.92;1.50;;;10.50;89.40;;;;;;6308513;22;19995;-71
2023/02/27 04:22:48;;;;;;;2.63;1.15;;;10.50;89.70;;;;;;6308144;22;19999;-70
2023/02/27 04:25:42;;;;;;;5.40;1.50;;;10.40;89.60;;;;;;6308395;22;20010;-72
2023/02/27 04:28:12;;;;;;;3.90;1.33;;;10.40;89.80;;;;;;6308451;22;20495;-71
2023/02/27 04:30:46;;;;;;;3.92;1.40;;;10.40;90.00;;;;;;6280945;22;20093;-73
2023/02/27 04:33:17;;;;;;;3.70;1.60;;;10.40;90.00;;;;;;6280926;22;20004;-71
2023/02/27 04:35:50;;;;;;;4.43;1.80;;;10.40;90.00;;;;;;6308376;22;20459;-71
2023/02/27 04:38:28;;;;;;;4.32;2.20;;;10.40;90.10;;;;;;6308584;22;19996;-71
2023/02/27 04:41:20;;;;;;;6.50;2.50;;;10.40;90.00;;;;;;6308267;22;20335;-72
2023/02/27 04:43:48;;;;;;;4.75;2.70;;;10.40;90.20;;;;;;6308030;22;19999;-71
2023/02/27 04:46:17;;;;;;;4.78;2.83;;;10.40;90.40;;;;;;6308035;22;20013;-71
2023/02/27 04:48:55;;;;;;;5.97;3.05;;;10.50;90.30;;;;;;6280642;22;20337;-71
2023/02/27 04:51:27;;;;;;;6.78;3.40;;;10.40;90.40;;;;;;6307823;22;19999;-72
2023/02/27 04:54:05;;;;;;;7.40;3.70;;;10.40;90.40;;;;;;6307652;22;20003;-72
2023/02/27 04:56:36;;;;;;;6.28;3.88;;;10.40;90.40;;;;;;6307811;22;20007;-71
2023/02/27 04:59:16;;;;;;;6.93;4.35;;;10.40;90.80;;;;;;6307290;22;19999;-72
2023/02/27 05:01:49;;;;;;;9.05;3.55;;;10.40;90.80;;;;;;6307932;22;20020;-72
2023/02/27 05:04:20;;;;;;;4.25;2.47;;;10.30;90.60;;;;;;6307783;22;20000;-71
2023/02/27 05:06:47;;;;;;;6.70;3.70;;;10.30;90.90;;;;;;6308012;22;20413;-71
2023/02/27 05:09:31;;;;;;;5.55;3.33;;;10.20;90.90;;;;;;6308150;22;20008;-71
2023/02/27 05:12:17;;;;;;;4.90;3.00;;;10.30;90.60;;;;;;6307821;22;20469;-71
2023/02/27 05:15:03;;;;;;;6.90;2.83;;;10.30;91.10;;;;;;6307675;22;20329;-71
2023/02/27 05:17:36;;;;;;;6.13;2.50;;;10.40;90.90;;;;;;6286098;22;20046;-70
2023/02/27 05:20:05;;;;;;;3.45;1.80;;;10.40;90.80;;;;;;6280483;22;20368;-72
2023/02/27 05:22:34;;;;;;;5.40;1.88;;;10.30;90.70;;;;;;6307726;22;20026;-70
2023/02/27 05:25:56;;;;;;;4.05;1.73;;;10.30;90.70;;;;;;6307742;22;20105;-72
2023/02/27 05:28:49;;;;;;;5.15;2.05;;;10.20;90.50;;;;;;6182908;23;20005;-71
2023/02/27 05:31:25;;;;;;;4.45;1.90;;;10.30;90.80;;;;;;6184491;23;20012;-72
2023/02/27 05:34:10;;;;;;;3.97;2.00;;;10.30;90.60;;;;;;6288446;22;20007;-70
2023/02/27 05:36:44;;;;;;;6.55;2.00;;;10.30;90.40;;;;;;6280310;22;20019;-70
2023/02/27 05:39:12;;;;;;;5.65;1.70;;;10.30;90.50;;;;;;6307632;22;20014;-71
2023/02/27 05:41:47;;;;;;;5.57;1.75;;;10.30;90.60;;;;;;6280464;22;20018;-72
2023/02/27 05:44:24;;;;;;;3.72;1.83;;;10.30;90.60;;;;;;6307660;22;20022;-71
2023/02/27 05:47:00;;;;;;;4.38;1.60;;;10.40;90.70;;;;;;6308331;22;20289;-72
2023/02/27 05:49:38;;;;;;;2.90;1.60;;;10.30;90.70;;;;;;6307476;22;19999;-71
2023/02/27 05:52:09;;;;;;;3.45;1.70;;;10.30;90.70;;;;;;6307355;22;19995;-71
2023/02/27 05:54:57;;;;;;;3.75;1.95;;;10.30;90.70;;;;;;6307187;22;20003;-70
2023/02/27 05:57:34;;;;;;;3.28;1.77;;;10.30;90.40;;;;;;6309310;22;20078;-73
2023/02/27 06:00:09;;;;;;;5.10;2.60;;;10.20;90.30;;;;;;6332981;22;20064;-72
2023/02/27 06:02:35;;;;;;;4.38;2.10;;;10.20;90.40;;;;;;6330386;22;19999;-72
2023/02/27 06:05:01;;;;;;;3.20;2.00;;;10.10;90.60;;;;;;6321065;22;20070;-72
2023/02/27 06:07:31;;;;;;;7.10;3.17;;;10.10;90.70;;;;;;6307184;22;20019;-71
2023/02/27 06:09:57;;;;;;;3.88;2.35;;;10.10;90.80;;;;;;6279730;22;20007;-72
2023/02/27 06:12:23;;;;;;;4.15;2.63;;;10.10;90.80;;;;;;6307154;22;20023;-71
2023/02/27 06:14:50;;;;;;;4.40;2.47;;;10.10;90.60;;;;;;6279587;22;20506;-72
2023/02/27 06:17:16;;;;;;;4.93;2.95;;;10.00;90.70;;;;;;6306612;22;20053;-71
2023/02/27 06:19:42;;;;;;;4.07;2.65;;;10.00;90.90;;;;;;6306971;22;20452;-71
2023/02/27 06:22:09;;;;;;;3.60;2.35;;;10.00;90.90;;;;;;6306916;22;20010;-72
2023/02/27 06:24:35;;;;;;;5.25;2.60;;;10.00;90.90;;;;;;6279807;22;20342;-71
2023/02/27 06:27:01;;;;;;;5.85;2.55;;;10.00;90.70;;;;;;6307243;22;20003;-72
2023/02/27 06:29:26;;;;;;;4.07;2.40;;;9.90;91.10;;;;;;6306832;22;20421;-71
2023/02/27 06:31:52;;;;;;;3.58;2.35;;;9.90;91.30;;;;;;6279762;22;20007;-71
2023/02/27 06:34:18;;;;;;;4.93;2.60;;;9.90;91.20;;;;;;6307069;22;20067;-71
2023/02/27 06:36:44;;;;;;;3.65;2.42;;;9.90;91.30;;;;;;6306627;22;20057;-72
2023/02/27 06:39:09;;;;;;;4.80;2.60;;;10.00;91.10;;;;;;6306842;22;20002;-71
2023/02/27 06:41:35;;;;;;;3.15;2.00;;;10.10;90.90;;;;;;6306695;22;20003;-72
2023/02/27 06:44:01;;;;;;;5.60;2.45;;;10.10;90.60;;;;;;6306798;22;19995;-73
2023/02/27 06:46:27;;;;;;;4.35;2.38;;;10.10;90.70;;;;;;6306358;22;20010;-72
2023/02/27 06:48:52;;;;;;;4.45;2.60;;;10.10;90.40;;;;;;6306718;22;20000;-72
2023/02/27 06:51:18;;;;;;;7.10;2.60;;;10.30;90.40;;;;;;6307118;22;19995;-71
2023/02/27 06:53:44;;;;;;;5.13;2.58;;;10.30;90.30;;;;;;6306855;22;19999;-71
2023/02/27 06:56:09;;;;;;;5.40;2.40;;;10.50;90.30;;;;;;6279110;22;20421;-73
2023/02/27 06:58:35;;;;;;;4.10;2.20;;;10.60;90.20;;;;;;6306191;22;20000;-71
2023/02/27 07:01:01;;;;;;;4.22;2.35;;;10.70;90.00;;;;;;6278902;22;20103;-71
2023/02/27 07:03:28;;;;;;;3.67;2.00;;;10.70;89.90;;;;;;6306680;22;20027;-71
2023/02/27 07:05:56;;;;;;;9.30;2.58;;;10.70;90.00;;;;;;6306804;22;20003;-71
2023/02/27 07:08:21;;;;;;;5.32;2.17;;;10.70;89.70;;;;;;6306653;22;19999;-72
2023/02/27 07:10:48;;;;;;;8.15;2.90;;;10.70;89.40;;;;;;6306598;22;20007;-72
2023/02/27 07:13:14;;;;;;;4.32;2.35;;;10.60;89.50;;;;;;6279120;22;20016;-74
2023/02/27 07:15:40;;;;;;;4.55;2.10;;;10.60;89.80;;;;;;6279167;22;20398;-73
2023/02/27 07:18:05;;;;;;;3.65;1.70;;;10.70;89.40;;;;;;6306445;22;20035;-72
2023/02/27 07:20:31;;;;;;;3.67;1.88;;;10.70;89.10;;;;;;6306074;22;20421;-72
2023/02/27 07:22:57;;;;;;;5.50;1.90;;;10.70;89.00;;;;;;6308179;22;19999;-73
2023/02/27 07:25:23;;;;;;;4.60;2.00;;;10.70;88.70;;;;;;6308593;22;20004;-72
2023/02/27 07:27:49;;;;;;;5.10;2.00;;;10.70;88.60;;;;;;6309005;22;20003;-75
2023/02/27 07:30:16;;;;;;;5.00;2.30;;;10.80;88.30;;;;;;6308424;22;20484;-70
2023/02/27 07:32:42;;;;;;;3.72;2.10;;;10.80;88.50;;;;;;6308270;22;20003;-73
2023/02/27 07:35:08;;;;;;;4.60;2.05;;;10.80;88.10;;;;;;6308149;22;19999;-72
2023/02/27 07:37:34;;;;;;;7.40;2.30;;;10.80;87.70;;;;;;6308270;22;20385;-72
2023/02/27 07:40:00;;;;;;;8.73;2.42;;;10.90;87.50;;;;;;6308008;22;19996;-72
2023/02/27 07:42:25;;;;;;;4.38;2.17;;;11.00;87.40;;;;;;6305596;22;20582;-70
2023/02/27 07:44:51;;;;;;;5.15;2.30;;;11.10;87.20;;;;;;6307693;22;20078;-69
2023/02/27 07:47:17;;;;;;;5.18;2.22;;;11.20;87.10;;;;;;6307062;22;20455;-71
2023/02/27 07:49:43;;;;;;;3.58;2.08;;;11.40;87.20;;;;;;6307049;22;20112;-72
2023/02/27 07:52:10;;;;;;;7.05;2.10;;;11.50;86.10;;;;;;6308002;22;20348;-70
2023/02/27 07:54:36;;;;;;;5.40;1.90;;;11.70;86.10;;;;;;6308244;22;20045;-71
2023/02/27 07:57:05;;;;;;;4.43;1.90;;;11.90;85.30;;;;;;6307882;22;20026;-70
2023/02/27 07:59:31;;;;;;;4.38;2.00;;;11.90;84.20;;;;;;6306022;22;20074;-71
2023/02/27 08:01:57;;;;;;;4.20;2.20;;;12.00;84.70;;;;;;6307320;22;20015;-71
2023/02/27 08:04:23;;;;;;;4.70;2.20;;;12.10;84.30;;;;;;6307467;22;20040;-70
2023/02/27 08:06:48;;;;;;;5.53;2.03;;;12.10;84.10;;;;;;6307744;22;20044;-71
2023/02/27 08:09:14;;;;;;;4.25;2.20;;;12.30;84.10;;;;;;6307163;22;20002;-72
2023/02/27 08:11:40;;;;;;;3.60;1.85;;;12.40;83.70;;;;;;6306783;22;20003;-75
2023/02/27 08:14:06;;;;;;;4.47;2.40;;;12.50;83.80;;;;;;6308577;22;20376;-75
2023/02/27 08:16:31;;;;;;;8.45;2.83;;;12.50;83.70;;;;;;6308393;22;20015;-75
2023/02/27 08:18:58;;;;;;;6.65;2.95;;;12.70;83.60;;;;;;6281210;22;20329;-76
2023/02/27 08:21:24;;;;;;;5.70;2.50;;;12.60;83.40;;;;;;6306938;22;20006;-76
2023/02/27 08:23:49;;;;;;;9.32;2.40;;;12.60;83.20;;;;;;6308401;22;19996;-77
2023/02/27 08:26:15;;;;;;;5.38;2.60;;;12.60;83.30;;;;;;6307856;22;20385;-73
2023/02/27 08:28:41;;;;;;;5.82;3.20;;;12.60;83.20;;;;;;6307667;22;20454;-76
2023/02/27 08:31:06;;;;;;;6.60;2.75;;;12.50;83.00;;;;;;6306746;22;20003;-75
2023/02/27 08:33:33;;;;;;;4.20;2.40;;;12.60;83.20;;;;;;6308390;22;20443;-75
2023/02/27 08:35:59;;;;;;;6.90;2.30;;;12.60;82.90;;;;;;6307759;22;20061;-75
2023/02/27 08:38:24;;;;;;;4.47;2.33;;;12.50;82.50;;;;;;6280551;22;20011;-75
2023/02/27 08:40:53;;;;;;;11.63;3.95;;;12.40;81.90;;;;;;6305768;22;20038;-77
2023/02/27 08:43:20;;;;;;;5.20;2.95;;;12.40;82.30;;;;;;6307524;22;20007;-76
2023/02/27 08:45:47;;;;;;;5.93;2.53;;;12.30;82.30;;;;;;6308126;22;19996;-75
2023/02/27 08:48:14;;;;;;;5.38;2.40;;;12.40;82.40;;;;;;6307684;22;20315;-75
2023/02/27 08:50:40;;;;;;;4.72;2.53;;;12.30;81.80;;;;;;6306001;22;20004;-73
2023/02/27 08:53:07;;;;;;;7.65;2.50;;;12.40;82.10;;;;;;6307132;22;20278;-76
2023/02/27 08:55:32;;;;;;;4.45;2.45;;;12.50;82.30;;;;;;6307703;22;20069;-75
2023/02/27 08:57:58;;;;;;;5.70;1.80;;;12.60;82.00;;;;;;6307548;22;20421;-75
2023/02/27 09:00:25;;;;;;;3.70;1.23;;;12.60;81.40;;;;;;6278096;22;20318;-77
2023/02/27 09:02:51;;;;;;;3.80;1.83;;;12.60;80.60;;;;;;6306444;22;20018;-73
2023/02/27 09:05:17;;;;;;;3.58;1.67;;;12.50;79.40;;;;;;6305702;22;20072;-76
2023/02/27 09:07:43;;;;;;;4.82;1.50;;;12.60;79.90;;;;;;6307719;22;20360;-76
2023/02/27 09:10:09;;;;;;;3.28;1.50;;;12.60;79.30;;;;;;6306742;22;20000;-77
2023/02/27 09:12:36;;;;;;;4.13;1.98;;;12.60;79.50;;;;;;6308068;22;19999;-75
2023/02/27 09:15:02;;;;;;;5.47;2.50;;;12.70;80.20;;;;;;6280179;22;20007;-78
2023/02/27 09:17:27;;;;;;;8.52;1.70;;;12.80;79.30;;;;;;6308291;22;20038;-77
2023/02/27 09:19:53;;;;;;;5.03;1.58;;;12.80;78.70;;;;;;6306118;22;20078;-77
2023/02/27 09:22:19;;;;;;;6.80;1.88;;;12.80;78.50;;;;;;6308405;22;20003;-77
2023/02/27 09:24:44;;;;;;;4.50;1.55;;;12.90;78.60;;;;;;6308185;22;20454;-77
2023/02/27 09:27:10;;;;;;;7.60;2.00;;;12.90;78.60;;;;;;6310873;22;20010;-76
2023/02/27 09:29:36;;;;;;;5.90;1.85;;;13.00;78.20;;;;;;6311899;22;19995;-78
2023/02/27 09:32:01;;;;;;;5.20;1.73;;;13.00;78.20;;;;;;6310296;22;20029;-77
2023/02/27 09:34:28;;;;;;;4.95;1.60;;;13.20;78.00;;;;;;6308250;22;19999;-78
2023/02/27 09:36:57;;;;;;;2.97;1.60;;;13.30;77.80;;;;;;6312338;22;20122;-79
2023/02/27 09:39:23;;;;;;;5.28;2.15;;;13.50;77.60;;;;;;6307685;22;19999;-76
2023/02/27 09:42:00;;;;;;;4.03;1.90;;;13.70;77.00;;;;;;6306677;22;20006;-78
2023/02/27 09:44:30;;;;;;;7.07;3.03;;;13.90;76.70;;;;;;6307280;22;20090;-74
2023/02/27 09:46:56;;;;;;;14.57;2.22;;;14.10;76.10;;;;;;6307413;22;20081;-73
2023/02/27 09:49:26;;;;;;;18.13;2.85;;;14.30;75.70;;;;;;6306397;22;20082;-73
2023/02/27 09:51:52;;;;;;;5.75;2.08;;;14.40;75.00;;;;;;6306568;22;20074;-74
2023/02/27 09:54:18;;;;;;;8.85;2.15;;;14.40;74.70;;;;;;6306873;22;20056;-76
2023/02/27 09:56:59;;;;;;;4.13;1.70;;;14.40;74.70;;;;;;6307477;22;20014;-77
2023/02/27 09:59:30;;;;;;;3.60;1.73;;;14.40;74.50;;;;;;6306253;22;20523;-76
2023/02/27 10:01:59;;;;;;;3.60;1.70;;;14.30;74.50;;;;;;6306671;22;20019;-76
2023/02/27 10:04:46;;;;;;;4.85;1.77;;;14.30;74.30;;;;;;6306959;22;20014;-75
2023/02/27 10:07:12;;;;;;;5.68;1.60;;;14.30;74.40;;;;;;6279598;22;20087;-77
2023/02/27 10:09:55;;;;;;;5.38;1.52;;;14.40;74.40;;;;;;6277332;22;19999;-77
2023/02/27 10:12:43;;;;;;;3.30;1.25;;;14.40;73.90;;;;;;6279213;22;20011;-75
2023/02/27 10:15:28;;;;;;;5.28;1.75;;;14.40;73.70;;;;;;6279453;22;20014;-77
2023/02/27 10:18:25;;;;;;;4.68;1.50;;;14.50;73.40;;;;;;6307110;22;20472;-77
2023/02/27 10:21:07;;;;;;;6.57;2.20;;;14.70;73.60;;;;;;6279083;22;20014;-78
2023/02/27 10:23:45;;;;;;;6.80;2.60;;;14.80;73.80;;;;;;6279186;22;20007;-80
2023/02/27 10:26:23;;;;;;;7.88;2.15;;;14.80;74.00;;;;;;6307100;22;20029;-80
2023/02/27 10:28:49;;;;;;;6.65;1.80;;;14.70;73.30;;;;;;6306818;22;20000;-80
2023/02/27 10:31:24;;;;;;;6.97;2.75;;;14.70;73.60;;;;;;6277240;22;20003;-80
2023/02/27 10:33:50;;;;;;;4.13;1.90;;;14.60;73.20;;;;;;6306989;22;19996;-79
2023/02/27 10:36:18;;;;;;;7.05;2.05;;;14.70;72.80;;;;;;6306734;22;20494;-79
2023/02/27 10:38:50;;;;;;;4.20;1.83;;;14.70;72.00;;;;;;6306623;22;20009;-80
2023/02/27 10:41:18;;;;;;;5.13;2.10;;;14.60;72.20;;;;;;6304579;22;20013;-79
2023/02/27 10:43:44;;;;;;;146.57;15.45;;;14.60;72.20;;;;;;6278894;22;20007;-80
2023/02/27 10:46:23;;;;;;;37.72;6.18;;;14.60;71.80;;;;;;6307188;22;20001;-79
2023/02/27 10:48:49;;;;;;;30.58;4.25;;;14.60;72.20;;;;;;6306652;22;19999;-80
2023/02/27 10:51:25;;;;;;;21.48;3.88;;;14.80;71.90;;;;;;6303768;22;20059;-80
2023/02/27 10:54:14;;;;;;;3.92;1.63;;;15.00;71.50;;;;;;6306817;22;20037;-80
2023/02/27 10:56:40;;;;;;;5.60;1.45;;;15.20;70.00;;;;;;6306477;22;20018;-79
2023/02/27 10:59:16;;;;;;;2.47;0.93;;;15.20;69.20;;;;;;6306671;22;20005;-79
2023/02/27 11:01:45;;;;;;;4.32;1.38;;;15.20;69.30;;;;;;6304383;22;20015;-79
2023/02/27 11:04:12;;;;;;;4.30;1.27;;;15.30;68.60;;;;;;6306257;22;20473;-79
2023/02/27 11:06:40;;;;;;;4.15;1.90;;;15.60;68.50;;;;;;6306564;22;20150;-79
2023/02/27 11:09:26;;;;;;;3.92;1.55;;;15.80;67.70;;;;;;6306505;22;19995;-80
2023/02/27 11:11:52;;;;;;;4.10;1.40;;;16.20;67.20;;;;;;6306057;22;20003;-80
2023/02/27 11:14:32;;;;;;;2.83;1.02;;;16.40;65.80;;;;;;6306390;22;20002;-78
2023/02/27 11:17:00;;;;;;;2.78;1.13;;;16.50;65.50;;;;;;6305980;22;20015;-78
2023/02/27 11:19:32;;;;;;;12.27;1.48;;;16.60;64.90;;;;;;6306279;22;19999;-79
2023/02/27 11:22:23;;;;;;;2.25;0.90;;;16.70;64.50;;;;;;6315393;22;20023;-81
2023/02/27 11:24:50;;;;;;;4.30;0.90;;;16.80;63.60;;;;;;6280434;22;20004;-77
2023/02/27 11:27:35;;;;;;;3.33;1.00;;;16.90;63.00;;;;;;6307371;22;20027;-79
2023/02/27 11:30:05;;;;;;;2.72;1.02;;;17.00;63.20;;;;;;6321080;22;20038;-78
2023/02/27 11:32:46;;;;;;;1.88;0.65;;;17.00;63.20;;;;;;6320837;22;20003;-75
2023/02/27 11:35:35;;;;;;;5.50;1.10;;;17.00;62.60;;;;;;6321098;22;20003;-75
2023/02/27 11:38:04;;;;;;;9.15;1.20;;;17.10;62.80;;;;;;6327021;22;20026;-77
2023/02/27 11:40:33;;;;;;;2.38;0.85;;;17.20;62.30;;;;;;6311880;22;20037;-78
2023/02/27 11:43:13;;;;;;;3.80;0.90;;;17.40;61.80;;;;;;6307604;22;19995;-77
2023/02/27 11:45:40;;;;;;;1.98;0.65;;;17.70;61.10;;;;;;6311308;22;20370;-81
2023/02/27 11:48:14;;;;;;;6.35;1.50;;;17.90;60.20;;;;;;6312110;22;19999;-78
2023/02/27 11:50:52;;;;;;;3.30;1.45;;;17.90;60.00;;;;;;6313467;22;20047;-75
2023/02/27 11:53:23;;;;;;;3.70;1.05;;;18.00;59.30;;;;;;6289582;22;20008;-79
2023/02/27 11:55:53;;;;;;;3.80;1.00;;;18.10;58.90;;;;;;6326374;22;20004;-83
2023/02/27 11:58:23;;;;;;;1.17;0.90;;;18.00;57.70;;;;;;6292533;22;20007;-87
2023/02/27 12:00:53;;;;;;;3.22;1.20;;;17.90;57.90;;;;;;6282548;22;20026;-85
2023/02/27 12:03:21;;;;;;;3.13;0.90;;;17.80;58.10;;;;;;6310574;22;20340;-83
2023/02/27 12:05:57;;;;;;;2.63;1.00;;;17.70;59.10;;;;;;6310094;22;20177;-78
2023/02/27 12:08:25;;;;;;;3.15;1.00;;;17.70;59.00;;;;;;6281799;22;20060;-76
2023/02/27 12:11:11;;;;;;;2.95;1.20;;;17.60;59.10;;;;;;6280742;22;20011;-83
2023/02/27 12:13:41;;;;;;;4.18;1.13;;;17.70;58.70;;;;;;6308626;22;19999;-75
2023/02/27 12:16:18;;;;;;;3.83;1.40;;;17.90;58.00;;;;;;6309331;22;20015;-84
2023/02/27 12:18:58;;;;;;;3.03;1.10;;;17.90;58.60;;;;;;6285096;22;20007;-84
2023/02/27 12:21:30;;;;;;;1.55;0.85;;;17.80;58.40;;;;;;6283321;22;20014;-77
2023/02/27 12:24:00;;;;;;;4.28;1.20;;;17.70;58.90;;;;;;6313783;22;20081;-86
2023/02/27 12:26:32;;;;;;;4.28;1.38;;;17.60;59.80;;;;;;6307277;22;20045;-83
2023/02/27 12:29:19;;;;;;;2.90;1.15;;;17.50;60.20;;;;;;6311796;22;19999;-86
2023/02/27 12:31:47;;;;;;;13.55;2.00;;;17.40;59.80;;;;;;6308659;22;20052;-85
2023/02/27 12:34:24;;;;;;;2.83;1.20;;;17.40;60.00;;;;;;6280766;22;20008;-88
2023/02/27 12:36:52;;;;;;;4.03;1.38;;;17.60;59.80;;;;;;6308624;22;20007;-85
2023/02/27 12:39:23;;;;;;;3.13;1.25;;;17.70;58.90;;;;;;6281116;22;19999;-82
2023/02/27 12:42:03;;;;;;;3.80;1.10;;;17.70;59.10;;;;;;6306092;22;20070;-82
2023/02/27 12:45:06;;;;;;;2.25;1.23;;;17.80;58.80;;;;;;6308475;22;20002;-83
2023/02/27 12:47:44;;;;;;;5.32;1.20;;;18.00;58.90;;;;;;6308894;22;20189;-86
2023/02/27 12:50:20;;;;;;;4.18;1.58;;;18.00;58.50;;;;;;6306855;22;20078;-85
2023/02/27 12:53:40;;;;;;;4.90;1.40;;;17.90;59.20;;;;;;6281698;22;20003;-85
2023/02/27 12:56:13;;;;;;;5.20;1.42;;;17.70;59.40;;;;;;6281822;22;20019;-83
2023/02/27 12:58:50;;;;;;;11.07;1.52;;;17.60;60.20;;;;;;6308842;22;19999;-83
2023/02/27 13:01:25;;;;;;;2.97;1.30;;;17.50;60.80;;;;;;6301857;22;20015;-85
2023/02/27 13:04:04;;;;;;;5.47;1.42;;;17.40;60.90;;;;;;6307996;22;20439;-84
2023/02/27 13:06:36;;;;;;;6.72;2.00;;;17.40;61.10;;;;;;6308359;22;20332;-84
2023/02/27 13:09:29;;;;;;;5.30;1.75;;;17.30;61.70;;;;;;6280839;22;20061;-85
2023/02/27 13:12:14;;;;;;;9.80;2.47;;;17.40;61.80;;;;;;6308089;22;20094;-78
2023/02/27 13:14:40;;;;;;;11.18;3.53;;;17.40;62.00;;;;;;6308763;22;20026;-81
2023/02/27 13:17:14;;;;;;;12.43;3.53;;;17.30;62.50;;;;;;6309137;22;20029;-81